Time;durP1;ratioP1;P1;durP2;ratioP2;P2;SDS_P1;SDS_P2;PMS_P1;PMS_P2;Temp;Humidity;BMP_temperature;BMP_pressure;BME280_temperature;BME280_humidity;BME280_pressure;Samples;Min_cycle;Max_cycle;Signal;HPM_P1;HPM_P2
2024/03/21 00:01:33;;;;;;;25.37;12.90;;;;;;;2.07;100.00;100754.75;123279;1099;104392;-77
2024/03/21 00:04:04;;;;;;;25.10;12.87;;;;;;;2.05;100.00;100743.36;123551;1099;105698;-77
2024/03/21 00:06:35;;;;;;;26.50;12.85;;;;;;;2.04;100.00;100744.17;123455;1098;104258;-76
2024/03/21 00:09:08;;;;;;;25.03;13.20;;;;;;;2.05;100.00;100747.65;123802;1099;104316;-76
2024/03/21 00:11:39;;;;;;;26.47;14.27;;;;;;;2.02;100.00;100748.31;123722;1099;104240;-77
2024/03/21 00:14:11;;;;;;;24.77;13.40;;;;;;;2.01;100.00;100736.18;123582;1099;104733;-77
2024/03/21 00:16:42;;;;;;;26.20;13.10;;;;;;;2.01;100.00;100740.44;123599;1099;104443;-77
2024/03/21 00:19:14;;;;;;;28.47;14.20;;;;;;;1.96;100.00;100732.33;123608;1099;104331;-76
2024/03/21 00:21:46;;;;;;;25.10;13.17;;;;;;;1.96;100.00;100732.33;123688;1099;104194;-77
2024/03/21 00:24:18;;;;;;;24.43;12.70;;;;;;;1.91;100.00;100726.81;123784;1099;104727;-77
2024/03/21 00:26:50;;;;;;;24.87;13.00;;;;;;;1.90;100.00;100731.87;124027;1099;104265;-78
2024/03/21 00:29:24;;;;;;;26.20;12.55;;;;;;;1.89;100.00;100730.09;123644;1099;104387;-78
2024/03/21 00:31:55;;;;;;;23.50;11.93;;;;;;;1.89;100.00;100730.98;123622;1099;104293;-78
2024/03/21 00:34:27;;;;;;;26.00;12.80;;;;;;;1.89;100.00;100725.81;123599;1099;104277;-78
2024/03/21 00:36:58;;;;;;;25.75;12.85;;;;;;;1.88;100.00;100729.17;123714;1099;104354;-79
2024/03/21 00:39:29;;;;;;;26.43;13.10;;;;;;;1.87;100.00;100723.88;123672;1099;104329;-78
2024/03/21 00:42:01;;;;;;;24.67;12.93;;;;;;;1.86;100.00;100717.82;123664;1099;104504;-78
2024/03/21 00:44:32;;;;;;;25.25;13.15;;;;;;;1.88;100.00;100723.11;123628;1099;104287;-78
2024/03/21 00:47:03;;;;;;;28.07;14.07;;;;;;;1.88;100.00;100713.64;123685;1099;104217;-77
2024/03/21 00:49:35;;;;;;;24.73;12.97;;;;;;;1.87;100.00;100721.30;123819;1098;104242;-79
2024/03/21 00:52:07;;;;;;;26.00;13.50;;;;;;;1.86;100.00;100714.34;123702;1099;104242;-78
2024/03/21 00:54:41;;;;;;;24.90;12.80;;;;;;;1.87;100.00;100714.45;123686;1099;104318;-79
2024/03/21 00:57:12;;;;;;;26.83;13.13;;;;;;;1.86;100.00;100709.16;123356;1099;104274;-79
2024/03/21 00:59:46;;;;;;;23.60;12.80;;;;;;;1.87;100.00;100714.45;123681;1099;104634;-78
2024/03/21 01:02:17;;;;;;;25.37;13.03;;;;;;;1.87;100.00;100714.45;123812;1099;104389;-80
2024/03/21 01:04:50;;;;;;;24.50;12.47;;;;;;;1.88;100.00;100708.47;123471;1099;104443;-77
2024/03/21 01:07:22;;;;;;;23.03;12.10;;;;;;;1.91;100.00;100712.98;123680;1098;104313;-77
2024/03/21 01:09:54;;;;;;;26.30;12.40;;;;;;;1.92;100.00;100707.92;123608;1099;104347;-78
2024/03/21 01:12:25;;;;;;;25.53;13.03;;;;;;;1.95;100.00;100702.08;123570;1099;104271;-78
2024/03/21 01:14:57;;;;;;;24.43;12.37;;;;;;;1.96;100.00;100697.02;123640;1099;104524;-78
2024/03/21 01:17:28;;;;;;;22.70;12.15;;;;;;;1.98;100.00;100692.84;123867;1099;104361;-79
2024/03/21 01:19:59;;;;;;;25.40;12.70;;;;;;;1.97;100.00;100685.85;123737;1099;104296;-79
2024/03/21 01:22:31;;;;;;;23.43;11.90;;;;;;;1.98;100.00;100694.54;123693;1099;104751;-79
2024/03/21 01:25:02;;;;;;;24.67;11.93;;;;;;;1.98;100.00;100679.02;123599;1098;104282;-77
2024/03/21 01:27:34;;;;;;;23.80;12.57;;;;;;;1.96;100.00;100685.73;123373;1099;104427;-77
2024/03/21 01:30:08;;;;;;;25.33;11.67;;;;;;;1.98;100.00;100682.48;123581;1099;104316;-76
2024/03/21 01:32:39;;;;;;;22.07;11.43;;;;;;;2.01;100.00;100687.00;123644;1099;104270;-77
2024/03/21 01:35:11;;;;;;;22.85;11.35;;;;;;;2.02;100.00;100672.36;123547;1099;104329;-78
2024/03/21 01:37:43;;;;;;;22.80;11.80;;;;;;;2.03;100.00;100679.34;123601;1099;104293;-78
2024/03/21 01:40:15;;;;;;;22.83;11.43;;;;;;;2.04;100.00;100681.13;123637;1099;104354;-77
2024/03/21 01:42:48;;;;;;;24.17;11.63;;;;;;;2.06;100.00;100683.05;123611;1099;104270;-77
2024/03/21 01:45:20;;;;;;;21.95;11.30;;;;;;;2.08;100.00;100680.56;123586;1099;104271;-78
2024/03/21 01:47:53;;;;;;;23.40;11.77;;;;;;;2.08;100.00;100681.45;123601;1099;104323;-78
2024/03/21 01:50:24;;;;;;;23.07;11.07;;;;;;;2.08;100.00;100680.56;123589;1099;104322;-77
2024/03/21 01:52:56;;;;;;;21.50;10.53;;;;;;;2.08;100.00;100683.16;123295;1099;104328;-77
2024/03/21 01:55:27;;;;;;;21.93;11.13;;;;;;;2.11;100.00;100684.27;123657;1099;105686;-78
2024/03/21 01:57:59;;;;;;;21.43;10.73;;;;;;;2.11;100.00;100679.09;123431;1099;104485;-77
2024/03/21 02:00:30;;;;;;;21.80;11.40;;;;;;;2.12;100.00;100680.91;123536;1099;104371;-77
2024/03/21 02:03:02;;;;;;;21.73;10.67;;;;;;;2.11;100.00;100670.44;123716;1099;104175;-77
2024/03/21 02:05:33;;;;;;;21.77;10.57;;;;;;;2.10;100.00;100674.72;123692;1099;104274;-77
2024/03/21 02:08:07;;;;;;;21.70;10.43;;;;;;;2.11;100.00;100671.33;123653;1099;104251;-78
2024/03/21 02:10:40;;;;;;;22.40;11.30;;;;;;;2.12;100.00;100670.55;123595;1099;104248;-78
2024/03/21 02:13:12;;;;;;;21.93;10.80;;;;;;;2.13;100.00;100668.84;123577;1099;104357;-78
2024/03/21 02:15:44;;;;;;;22.73;10.47;;;;;;;2.13;100.00;100668.84;123691;1099;104287;-77
2024/03/21 02:18:16;;;;;;;20.93;10.10;;;;;;;2.13;100.00;100668.84;123601;1098;104269;-77
2024/03/21 02:20:47;;;;;;;20.07;9.97;;;;;;;2.12;100.00;100662.78;123815;1099;104269;-77
2024/03/21 02:23:19;;;;;;;21.00;10.30;;;;;;;2.11;100.00;100660.97;123637;1099;104287;-77
2024/03/21 02:25:50;;;;;;;21.50;10.70;;;;;;;2.14;100.00;100653.42;123538;1099;104370;-77
2024/03/21 02:28:21;;;;;;;21.70;10.70;;;;;;;2.19;100.00;100658.05;123707;1098;104248;-77
2024/03/21 02:30:55;;;;;;;20.67;9.57;;;;;;;2.16;100.00;100657.02;123367;1099;104418;-77
2024/03/21 02:33:26;;;;;;;24.98;10.60;;;;;;;2.18;100.00;100653.64;123699;1099;104301;-78
2024/03/21 02:35:57;;;;;;;20.37;10.20;;;;;;;2.15;100.00;100656.90;123499;1099;104350;-77
2024/03/21 02:38:29;;;;;;;25.97;10.97;;;;;;;2.13;100.00;100648.13;123632;1099;107107;-77
2024/03/21 02:41:00;;;;;;;21.70;10.20;;;;;;;2.12;100.00;100655.02;123714;1099;104271;-78
2024/03/21 02:43:31;;;;;;;21.05;10.35;;;;;;;2.13;100.00;100645.55;123837;1099;104297;-77
2024/03/21 02:46:03;;;;;;;23.50;10.87;;;;;;;2.14;100.00;100644.77;123800;1099;104348;-78
2024/03/21 02:48:35;;;;;;;22.50;9.97;;;;;;;2.11;100.00;100647.14;123631;1099;118543;-77
2024/03/21 02:51:06;;;;;;;20.00;9.50;;;;;;;2.11;100.00;100644.55;123591;1099;104345;-77
2024/03/21 02:53:37;;;;;;;21.55;10.35;;;;;;;2.11;100.00;100650.61;123718;1099;104364;-77
2024/03/21 02:56:09;;;;;;;22.03;10.03;;;;;;;2.12;100.00;100644.66;123766;1099;104370;-77
2024/03/21 02:58:40;;;;;;;20.90;10.40;;;;;;;2.14;100.00;100650.84;123503;1099;104328;-77
2024/03/21 03:01:11;;;;;;;23.30;10.87;;;;;;;2.12;100.00;100649.84;123555;1098;104352;-77
2024/03/21 03:03:43;;;;;;;21.17;9.80;;;;;;;2.07;100.00;100651.20;123189;1100;104313;-77
2024/03/21 03:06:19;;;;;;;21.57;9.83;;;;;;;2.00;100.00;100648.95;123604;1098;104329;-77
2024/03/21 03:08:50;;;;;;;19.23;9.30;;;;;;;1.94;100.00;100651.09;123768;1099;104373;-77
2024/03/21 03:11:21;;;;;;;21.33;10.33;;;;;;;1.88;100.00;100650.65;123796;1099;104169;-78
2024/03/21 03:13:52;;;;;;;22.53;10.73;;;;;;;1.78;100.00;100655.15;123713;1099;104303;-79
2024/03/21 03:16:24;;;;;;;21.35;10.15;;;;;;;1.68;100.00;100650.08;123656;1099;104418;-78
2024/03/21 03:18:55;;;;;;;21.50;10.37;;;;;;;1.66;100.00;100659.42;123609;1099;104376;-78
2024/03/21 03:21:27;;;;;;;22.35;10.75;;;;;;;1.64;100.00;100655.84;123234;1099;104351;-77
2024/03/21 03:23:58;;;;;;;25.95;12.60;;;;;;;1.59;100.00;100658.08;123635;1098;104701;-77
2024/03/21 03:26:29;;;;;;;25.47;11.43;;;;;;;1.56;100.00;100662.14;123602;1099;104370;-78
2024/03/21 03:29:01;;;;;;;24.83;11.57;;;;;;;1.51;100.00;100655.70;123657;1099;105514;-77
2024/03/21 03:31:32;;;;;;;23.07;11.77;;;;;;;1.48;100.00;100656.39;123249;1099;104245;-78
2024/03/21 03:36:52;;;;;;;22.47;10.90;;;;;;;1.42;100.00;100650.77;123694;1099;104242;-78
2024/03/21 03:39:24;;;;;;;21.80;10.87;;;;;;;1.40;100.00;100645.48;123616;1099;104377;-79
2024/03/21 03:41:55;;;;;;;24.23;11.17;;;;;;;1.38;100.00;100647.03;123288;1099;104299;-79
2024/03/21 03:44:26;;;;;;;23.67;10.70;;;;;;;1.38;100.00;100635.80;123642;1099;104371;-78
2024/03/21 03:46:58;;;;;;;24.60;11.35;;;;;;;1.39;100.00;100635.02;123663;1099;104882;-78
2024/03/21 03:49:29;;;;;;;23.97;11.27;;;;;;;1.39;100.00;100628.15;123660;1099;104358;-77
2024/03/21 03:52:01;;;;;;;23.57;10.93;;;;;;;1.42;100.00;100630.97;123298;1099;104425;-77
2024/03/21 03:54:32;;;;;;;23.67;11.47;;;;;;;1.42;100.00;100625.80;123314;1099;104315;-77
2024/03/21 03:57:03;;;;;;;26.37;12.10;;;;;;;1.44;100.00;100625.91;123637;1099;104344;-79
2024/03/21 03:59:35;;;;;;;24.57;12.20;;;;;;;1.44;100.00;100620.73;123459;1099;104271;-77
2024/03/21 04:02:07;;;;;;;23.13;10.73;;;;;;;1.42;100.00;100620.63;123659;1099;104348;-78
2024/03/21 04:04:38;;;;;;;22.37;10.87;;;;;;;1.43;100.00;100627.61;123645;1099;104325;-80
2024/03/21 04:07:09;;;;;;;24.47;11.20;;;;;;;1.44;100.00;100621.62;123646;1099;104252;-77
2024/03/21 04:09:41;;;;;;;21.83;10.83;;;;;;;1.47;100.00;100620.96;123597;1099;104271;-76
2024/03/21 04:12:12;;;;;;;22.93;10.50;;;;;;;1.49;100.00;100628.84;123719;1098;104266;-78
2024/03/21 04:14:46;;;;;;;22.63;10.20;;;;;;;1.48;100.00;100624.44;123835;1098;104220;-77
2024/03/21 04:17:17;;;;;;;21.30;10.40;;;;;;;1.53;100.00;100633.46;123620;1099;104271;-78
2024/03/21 04:19:48;;;;;;;21.90;9.50;;;;;;;1.55;100.00;100634.46;123360;1099;104335;-76
2024/03/21 04:22:20;;;;;;;21.77;9.07;;;;;;;1.59;100.00;100639.97;123749;1099;104268;-77
2024/03/21 04:24:51;;;;;;;19.90;9.23;;;;;;;1.61;100.00;100648.73;123646;1099;104270;-77
2024/03/21 04:27:23;;;;;;;20.57;9.50;;;;;;;1.62;100.00;100647.04;123673;1099;104245;-76
2024/03/21 04:29:54;;;;;;;21.57;9.60;;;;;;;1.68;100.00;100641.42;123729;1099;104312;-76
2024/03/21 04:32:25;;;;;;;21.13;9.87;;;;;;;1.71;100.00;100641.66;123736;1099;104360;-78
2024/03/21 04:34:57;;;;;;;20.80;9.47;;;;;;;1.75;100.00;100639.41;123701;1098;104267;-76
2024/03/21 04:37:29;;;;;;;25.67;10.70;;;;;;;1.78;100.00;100641.33;123696;1099;104267;-78
2024/03/21 04:40:00;;;;;;;22.70;10.65;;;;;;;1.77;100.00;100637.81;123664;1099;104319;-76
2024/03/21 04:42:32;;;;;;;21.00;9.60;;;;;;;1.80;100.00;100652.67;123510;1099;104259;-78
2024/03/21 04:45:04;;;;;;;23.17;10.20;;;;;;;1.82;100.00;100650.20;123736;1099;104278;-76
2024/03/21 04:47:36;;;;;;;21.57;9.43;;;;;;;1.82;100.00;100640.73;123626;1099;104245;-76
2024/03/21 04:50:08;;;;;;;20.17;9.67;;;;;;;1.86;100.00;100639.30;123320;1099;104741;-77
2024/03/21 04:52:40;;;;;;;22.17;10.27;;;;;;;1.90;100.00;100642.22;123549;1099;104271;-77
2024/03/21 04:55:11;;;;;;;23.60;11.60;;;;;;;1.93;100.00;100644.11;123766;1099;104287;-78
2024/03/21 04:57:42;;;;;;;25.53;10.40;;;;;;;1.95;100.00;100627.91;123734;1098;104192;-77
2024/03/21 05:00:15;;;;;;;26.80;11.83;;;;;;;1.98;100.00;100638.48;123525;1099;104287;-78
2024/03/21 05:02:46;;;;;;;24.63;11.13;;;;;;;2.01;100.00;100640.41;123732;1099;104253;-79
2024/03/21 05:05:19;;;;;;;28.90;12.23;;;;;;;2.02;100.00;100631.83;123270;1099;104514;-78
2024/03/21 05:07:50;;;;;;;25.73;11.43;;;;;;;2.06;100.00;100635.56;123854;1099;104767;-78
2024/03/21 05:10:21;;;;;;;25.90;11.70;;;;;;;2.06;100.00;100638.16;123717;1099;104344;-77
2024/03/21 05:12:54;;;;;;;;;;;;;;;2.09;100.00;100633.19;123743;1099;104251;-77
2024/03/21 05:15:25;;;;;;;27.47;10.80;;;;;;;2.11;100.00;100631.61;123712;1099;104277;-77
2024/03/21 05:17:57;;;;;;;22.23;10.83;;;;;;;2.13;100.00;100636.08;123709;1099;104344;-76
2024/03/21 05:20:28;;;;;;;30.35;13.40;;;;;;;2.17;100.00;100637.22;123781;1099;104312;-76
2024/03/21 05:22:59;;;;;;;27.00;13.10;;;;;;;2.20;100.00;100631.34;123420;1099;104418;-77
2024/03/21 05:25:31;;;;;;;29.57;13.53;;;;;;;2.20;100.00;100621.91;123888;1099;104242;-78
2024/03/21 05:28:02;;;;;;;31.13;13.63;;;;;;;2.21;100.00;100630.56;123664;1099;104299;-77
2024/03/21 05:30:34;;;;;;;29.77;13.40;;;;;;;2.24;100.00;100623.01;123994;1099;104287;-77
2024/03/21 05:33:08;;;;;;;29.40;14.33;;;;;;;2.29;100.00;100629.41;123856;1099;104337;-78
2024/03/21 05:35:39;;;;;;;29.53;14.70;;;;;;;2.35;100.00;100632.42;124022;1099;104735;-78
2024/03/21 05:38:11;;;;;;;29.45;14.70;;;;;;;2.41;100.00;100627.69;123665;1099;104316;-76
2024/03/21 05:40:46;;;;;;;29.33;13.97;;;;;;;2.43;100.00;100627.79;123728;1099;104226;-78
2024/03/21 05:43:17;;;;;;;29.70;13.90;;;;;;;2.45;100.00;100626.23;123631;1099;104287;-79
2024/03/21 05:45:48;;;;;;;32.07;13.30;;;;;;;2.47;100.00;100638.47;124420;1098;104178;-75
2024/03/21 05:48:20;;;;;;;31.00;13.77;;;;;;;2.51;100.00;100637.91;124104;1099;104268;-75
2024/03/21 05:50:52;;;;;;;30.47;14.07;;;;;;;2.55;100.00;100625.17;124560;1099;104245;-76
2024/03/21 05:53:23;;;;;;;29.37;13.87;;;;;;;2.59;100.00;100628.08;124265;1099;104271;-76
2024/03/21 05:55:59;;;;;;;29.10;13.67;;;;;;;2.63;100.00;100635.28;124080;1099;104279;-76
2024/03/21 05:58:31;;;;;;;27.70;12.53;;;;;;;2.63;100.00;100635.28;123984;1099;104300;-76
2024/03/21 06:01:21;;;;;;;26.13;12.60;;;;;;;2.65;100.00;100623.33;123879;1099;104257;-77
2024/03/21 06:03:53;;;;;;;28.07;13.57;;;;;;;2.69;100.00;100627.02;124471;1099;104270;-77
2024/03/21 06:06:27;;;;;;;28.60;13.13;;;;;;;2.71;100.00;100628.02;124322;1099;104278;-76
2024/03/21 06:08:58;;;;;;;26.77;12.73;;;;;;;2.74;100.00;100629.92;124453;1099;104385;-78
2024/03/21 06:11:29;;;;;;;29.63;13.07;;;;;;;2.75;100.00;100624.85;124471;1098;104242;-77
2024/03/21 06:14:01;;;;;;;26.47;12.57;;;;;;;2.77;100.00;100628.44;124398;1099;104268;-77
2024/03/21 06:16:33;;;;;;;27.43;13.60;;;;;;;2.80;100.00;100620.88;124443;1099;104274;-78
2024/03/21 06:19:04;;;;;;;27.60;12.43;;;;;;;2.81;100.00;100627.87;124330;1099;104267;-77
2024/03/21 06:21:36;;;;;;;31.93;13.00;;;;;;;2.82;100.00;100624.49;124486;1099;104659;-78
2024/03/21 06:24:09;;;;;;;28.23;13.23;;;;;;;2.76;100.00;100618.89;124685;1099;102658;-79
2024/03/21 06:26:42;;;;;;;25.87;12.73;;;;;;;2.82;100.00;100629.67;124152;1099;104322;-79
2024/03/21 06:29:27;;;;;;;27.53;13.00;;;;;;;2.84;100.00;100633.27;124786;1099;104271;-78
2024/03/21 06:31:58;;;;;;;27.40;12.33;;;;;;;2.84;100.00;100627.19;124857;1099;105592;-80
2024/03/21 06:34:34;;;;;;;26.47;13.17;;;;;;;2.86;100.00;100623.88;124459;1099;104300;-80
2024/03/21 06:37:06;;;;;;;31.83;14.70;;;;;;;2.92;100.00;100626.01;124914;1099;104425;-80
2024/03/21 06:39:38;;;;;;;26.07;12.80;;;;;;;2.94;100.00;100614.05;124581;1099;102202;-78
2024/03/21 06:42:15;;;;;;;26.80;12.87;;;;;;;3.04;100.00;100623.36;124777;1098;104361;-80
2024/03/21 06:44:48;;;;;;;25.03;11.87;;;;;;;3.06;100.00;100625.24;124698;1099;104255;-80
2024/03/21 06:47:22;;;;;;;23.83;11.53;;;;;;;3.10;100.00;100628.97;124627;1099;104331;-80
2024/03/21 06:49:57;;;;;;;27.10;13.27;;;;;;;3.10;100.00;100621.19;125160;1099;104409;-79
2024/03/21 06:52:29;;;;;;;27.80;13.47;;;;;;;3.12;100.00;100621.30;125136;1099;104392;-80
2024/03/21 06:55:03;;;;;;;23.90;12.33;;;;;;;3.12;100.00;100627.36;125160;1099;104242;-79
2024/03/21 06:57:35;;;;;;;27.85;13.60;;;;;;;3.14;100.00;100638.73;125186;1099;102695;-78
2024/03/21 07:00:12;;;;;;;27.20;13.57;;;;;;;3.13;100.00;100639.55;124694;1097;104332;-79
2024/03/21 07:02:44;;;;;;;26.87;14.07;;;;;;;3.15;100.00;100631.88;125214;1099;104204;-80
2024/03/21 07:05:18;;;;;;;25.77;12.80;;;;;;;3.15;100.00;100635.35;125191;1099;104227;-80
2024/03/21 07:07:54;;;;;;;28.47;14.07;;;;;;;3.19;100.00;100639.92;125088;1098;104261;-81
2024/03/21 07:10:26;;;;;;;26.40;13.77;;;;;;;3.19;100.00;100645.11;125764;1099;104258;-81
2024/03/21 07:12:59;;;;;;;27.03;13.90;;;;;;;3.20;100.00;100639.14;125904;1099;104240;-81
2024/03/21 07:15:32;;;;;;;31.77;16.07;;;;;;;3.18;100.00;100640.75;125289;1099;103093;-79
2024/03/21 07:18:06;;;;;;;31.10;14.83;;;;;;;3.17;100.00;100646.72;126181;1099;102861;-82
2024/03/21 07:20:42;;;;;;;27.02;14.28;;;;;;;3.18;100.00;100650.20;125928;1099;104272;-82
2024/03/21 07:23:13;;;;;;;31.97;15.37;;;;;;;3.19;100.00;100652.00;125126;1099;102103;-80
2024/03/21 07:25:47;;;;;;;22.40;10.13;;;;;;;3.18;100.00;100645.94;125212;1099;104162;-80
2024/03/21 07:28:22;;;;;;;24.87;11.03;;;;;;;3.10;100.00;100647.12;125245;1099;101919;-80
2024/03/21 07:31:07;;;;;;;21.77;10.37;;;;;;;3.07;100.00;100649.50;124779;1099;104181;-80
2024/03/21 07:33:51;;;;;;;20.50;8.60;;;;;;;3.04;100.00;100646.70;125135;1099;104683;-80
2024/03/21 07:36:45;;;;;;;15.80;8.17;;;;;;;3.00;100.00;100639.50;125059;1099;104347;-79
2024/03/21 07:39:20;;;;;;;15.43;7.30;;;;;;;2.98;100.00;100646.28;124518;1099;104172;-79
2024/03/21 07:42:12;;;;;;;17.37;7.97;;;;;;;3.02;100.00;100640.48;124625;1099;104321;-78
2024/03/21 07:44:46;;;;;;;17.80;8.47;;;;;;;3.13;100.00;100636.03;124881;1099;109217;-79
2024/03/21 07:47:20;;;;;;;18.90;8.20;;;;;;;3.27;100.00;100636.96;124803;1099;104168;-80
2024/03/21 07:49:54;;;;;;;15.23;6.97;;;;;;;3.45;100.00;100635.59;125105;1099;104176;-80
2024/03/21 07:52:24;;;;;;;;;;;;;;;3.67;100.00;100642.20;125151;1099;103042;-80
2024/03/21 07:55:00;;;;;;;16.40;7.50;;;;;;;3.90;100.00;100642.00;125115;1098;104210;-79
2024/03/21 07:57:31;;;;;;;16.37;7.50;;;;;;;4.09;100.00;100643.19;125188;1099;103662;-80
2024/03/21 08:00:28;;;;;;;18.07;8.38;;;;;;;4.36;100.00;100648.33;126515;1099;102643;-80
2024/03/21 08:03:24;;;;;;;20.00;9.45;;;;;;;4.56;100.00;100645.26;126595;1098;102750;-80
2024/03/21 08:06:02;;;;;;;19.37;9.60;;;;;;;4.74;100.00;100635.11;126739;1099;101881;-80
2024/03/21 08:08:33;;;;;;;21.03;9.43;;;;;;;4.89;100.00;100634.24;125090;1099;102561;-80
2024/03/21 08:11:05;;;;;;;16.75;7.90;;;;;;;4.98;100.00;100637.40;124949;1099;104213;-80
2024/03/21 08:13:37;;;;;;;18.40;8.97;;;;;;;5.02;100.00;100635.08;125025;1099;104245;-79
2024/03/21 08:16:13;;;;;;;17.17;8.85;;;;;;;5.03;100.00;100633.36;124988;1099;104207;-80
2024/03/21 08:18:49;;;;;;;20.03;10.10;;;;;;;5.01;100.00;100646.27;125106;1099;104274;-80
2024/03/21 08:21:21;;;;;;;22.53;10.73;;;;;;;4.98;100.00;100646.09;125094;1099;104198;-80
2024/03/21 08:23:52;;;;;;;19.67;10.13;;;;;;;4.97;100.00;100644.31;125070;1098;104393;-79
2024/03/21 08:26:24;;;;;;;22.67;11.83;;;;;;;5.00;100.00;100646.18;125199;1099;104185;-80
2024/03/21 08:28:57;;;;;;;18.13;8.97;;;;;;;5.05;100.00;100644.78;125252;1099;104249;-79
2024/03/21 08:31:28;;;;;;;20.70;10.25;;;;;;;5.04;100.00;100636.05;124987;1099;104162;-80
2024/03/21 08:34:01;;;;;;;19.93;9.80;;;;;;;5.14;100.00;100645.33;125152;1098;104245;-81
2024/03/21 08:36:32;;;;;;;15.47;6.83;;;;;;;5.19;100.00;100643.00;124983;1099;104310;-80
2024/03/21 08:39:04;;;;;;;14.43;7.03;;;;;;;5.17;100.00;100644.59;125128;1099;104278;-82
2024/03/21 08:41:37;;;;;;;13.77;6.90;;;;;;;5.16;100.00;100646.31;125192;1099;104368;-80
2024/03/21 08:44:10;;;;;;;14.43;6.93;;;;;;;5.15;100.00;100647.10;124830;1099;104211;-78
2024/03/21 08:46:42;;;;;;;13.40;6.80;;;;;;;5.13;100.00;100646.13;125053;1099;102910;-79
2024/03/21 08:49:16;;;;;;;13.93;6.73;;;;;;;5.17;100.00;100645.52;124903;1098;102217;-78
2024/03/21 08:51:48;;;;;;;16.30;7.40;;;;;;;5.17;100.00;100645.52;125100;1099;104242;-79
2024/03/21 08:54:20;;;;;;;17.17;7.17;;;;;;;5.18;100.00;100651.61;124824;1099;104196;-77
2024/03/21 08:56:52;;;;;;;18.10;8.07;;;;;;;5.28;100.00;100642.63;124957;1099;104166;-78
2024/03/21 08:59:42;;;;;;;17.40;7.97;;;;;;;5.42;100.00;100649.53;124800;1099;104328;-79
2024/03/21 09:02:15;;;;;;;21.33;9.40;;;;;;;5.62;100.00;100655.02;125122;1099;104165;-80
2024/03/21 09:04:54;;;;;;;19.67;9.73;;;;;;;5.69;100.00;100646.77;125175;1099;103025;-79
2024/03/21 09:07:36;;;;;;;20.75;10.03;;;;;;;5.72;100.00;100655.64;124960;1096;102369;-80
2024/03/21 09:10:13;;;;;;;19.10;9.15;;;;;;;5.76;100.00;100655.02;125294;1099;103031;-80
2024/03/21 09:12:47;;;;;;;19.47;9.43;;;;;;;5.92;100.00;100648.05;125373;1099;103612;-80
2024/03/21 09:15:20;;;;;;;20.50;9.97;;;;;;;6.00;100.00;100652.05;125161;1099;104334;-79
2024/03/21 09:17:51;;;;;;;19.13;10.30;;;;;;;6.07;100.00;100656.77;125170;1099;104213;-80
2024/03/21 09:20:24;;;;;;;19.60;10.07;;;;;;;6.16;100.00;100651.19;124910;1099;104351;-80
2024/03/21 09:22:55;;;;;;;22.97;10.43;;;;;;;6.25;100.00;100643.89;127190;1098;101910;-79
2024/03/21 09:25:27;;;;;;;20.40;10.53;;;;;;;6.39;100.00;100651.55;126018;1099;102092;-79
2024/03/21 09:27:59;;;;;;;21.90;11.47;;;;;;;6.46;100.00;100646.75;125809;1099;104255;-80
2024/03/21 09:30:31;;;;;;;20.33;10.70;;;;;;;6.58;100.00;100649.14;125098;1099;104274;-79
2024/03/21 09:33:04;;;;;;;;;;;;;;;6.68;100.00;100647.92;125116;1098;104217;-79
2024/03/21 09:35:39;;;;;;;21.80;10.37;;;;;;;6.78;100.00;100645.00;125210;1099;104281;-79
2024/03/21 09:38:11;;;;;;;17.73;8.83;;;;;;;6.90;100.00;100639.52;125108;1099;104178;-79
2024/03/21 09:40:42;;;;;;;15.57;7.67;;;;;;;7.12;100.00;100643.25;125312;1099;104345;-80
2024/03/21 09:43:14;;;;;;;15.83;7.80;;;;;;;7.24;100.00;100650.83;125025;1099;104245;-79
2024/03/21 09:45:51;;;;;;;17.83;8.47;;;;;;;7.34;100.00;100645.28;124713;1099;104229;-79
2024/03/21 09:48:23;;;;;;;14.90;7.27;;;;;;;7.36;100.00;100649.73;125012;1099;104165;-79
2024/03/21 09:50:55;;;;;;;15.03;6.67;;;;;;;7.37;100.00;100642.82;125020;1099;104178;-80
2024/03/21 09:53:27;;;;;;;18.37;7.27;;;;;;;7.16;100.00;100647.83;124942;1099;104191;-80
2024/03/21 09:55:58;;;;;;;13.50;6.70;;;;;;;6.97;100.00;100646.86;124999;1099;104201;-79
2024/03/21 09:58:30;;;;;;;16.47;6.93;;;;;;;7.02;100.00;100658.42;124754;1099;104192;-78
2024/03/21 10:01:17;;;;;;;17.63;8.73;;;;;;;7.10;100.00;100651.00;125112;1099;104133;-80
2024/03/21 10:03:53;;;;;;;14.33;7.10;;;;;;;7.20;100.00;100661.11;125067;1099;102194;-82
2024/03/21 10:06:23;;;;;;;;;;;;;;;7.19;100.00;100654.09;125256;1099;102700;-81
2024/03/21 10:08:57;;;;;;;12.77;6.13;;;;;;;7.18;100.00;100657.53;125373;1099;102294;-79
2024/03/21 10:11:29;;;;;;;12.65;5.40;;;;;;;7.16;100.00;100666.09;124969;1099;104200;-81
2024/03/21 10:14:01;;;;;;;10.50;5.47;;;;;;;6.99;100.00;100665.20;124667;1099;104297;-80
2024/03/21 10:16:34;;;;;;;10.40;5.67;;;;;;;7.11;100.00;100654.53;124979;1099;102431;-80
2024/03/21 10:19:05;;;;;;;10.93;5.60;;;;;;;7.21;100.00;100656.78;125118;1099;104297;-79
2024/03/21 10:21:38;;;;;;;10.87;5.60;;;;;;;7.25;100.00;100652.63;125268;1099;104361;-80
2024/03/21 10:24:09;;;;;;;10.77;5.63;;;;;;;7.23;100.00;100647.34;124672;1099;104348;-80
2024/03/21 10:26:51;;;;;;;11.20;5.57;;;;;;;7.27;100.00;100649.27;125329;1099;104249;-81
2024/03/21 10:29:27;;;;;;;9.47;5.37;;;;;;;7.38;100.00;100637.64;125142;1098;104214;-80
2024/03/21 10:32:00;;;;;;;9.47;5.27;;;;;;;7.59;100.00;100636.04;125707;1098;104275;-80
2024/03/21 10:34:33;;;;;;;13.07;5.50;;;;;;;7.88;100.00;100642.70;124960;1099;104267;-79
2024/03/21 10:37:05;;;;;;;9.40;4.80;;;;;;;8.17;100.00;100651.07;124937;1099;104733;-81
2024/03/21 10:39:37;;;;;;;11.30;5.60;;;;;;;8.39;100.00;100648.62;125348;1099;102001;-79
2024/03/21 10:42:16;;;;;;;11.17;5.07;;;;;;;8.45;100.00;100655.91;125084;1099;104156;-80
2024/03/21 10:44:48;;;;;;;9.73;4.67;;;;;;;8.30;100.00;100647.31;125115;1099;104357;-78
2024/03/21 10:47:20;;;;;;;9.50;4.33;;;;;;;8.24;100.00;100655.75;124957;1099;102788;-81
2024/03/21 10:49:54;;;;;;;;;;;;;;;8.15;98.19;100653.61;125248;1099;103062;-81
2024/03/21 10:52:26;;;;;;;7.70;4.23;;;;;;;8.14;100.00;100649.20;125290;1099;104214;-80
2024/03/21 10:55:00;;;;;;;9.40;4.00;;;;;;;8.10;100.00;100663.84;125301;1099;104514;-79
2024/03/21 10:57:35;;;;;;;9.37;5.07;;;;;;;7.96;100.00;100653.53;124708;1099;104409;-79
2024/03/21 11:00:13;;;;;;;11.13;5.67;;;;;;;7.86;100.00;100662.64;125106;1099;102628;-81
2024/03/21 11:02:48;;;;;;;13.80;6.00;;;;;;;7.83;100.00;100659.88;125214;1098;103294;-80
2024/03/21 11:05:26;;;;;;;13.70;6.77;;;;;;;7.74;100.00;100660.31;125222;1099;102360;-80
2024/03/21 11:07:58;;;;;;;13.70;6.83;;;;;;;7.74;100.00;100660.31;125011;1099;102997;-80
2024/03/21 11:10:36;;;;;;;13.88;6.70;;;;;;;7.78;100.00;100657.04;116684;1099;10001467;-80
2024/03/21 11:13:10;;;;;;;14.37;6.57;;;;;;;7.91;100.00;100661.14;125366;1099;102934;-80
2024/03/21 11:15:41;;;;;;;13.30;6.80;;;;;;;7.90;100.00;100660.26;125433;1099;104335;-80
2024/03/21 11:18:21;;;;;;;12.97;6.67;;;;;;;7.85;100.00;100669.59;125385;1099;104174;-80
2024/03/21 11:20:55;;;;;;;14.83;7.27;;;;;;;7.70;100.00;100676.67;125380;1099;102366;-82
2024/03/21 11:23:29;;;;;;;14.50;6.85;;;;;;;7.53;100.00;100673.20;125434;1099;103225;-82
2024/03/21 11:26:05;;;;;;;14.83;7.33;;;;;;;7.41;100.00;100686.52;125487;1099;104182;-81